KDIK/DIK METAR and TAF weather

Enter ICAO airport designator
Station Type Date Time Source
KDIK METAR 2020/11/25 21:56 UTC NOAA

KDIK 252156Z AUTO 26008KT 10SM CLR 08/M08 A2960 RMK AO2 SLP044 T00781078


Station Type Date Time Source
KDIK Decoded METAR 2020/11/25 21:56 UTC NOAA

THEODORE ROOSEVELT REGIONAL, ND, United States (KDIK) 46-48N 102-48W 788M
Nov 25, 2020 - 04:56 PM EST / 2020.11.25 2156 UTC
Wind: from the W (260 degrees) at 9 MPH (8 KT):0
Visibility: 10 mile(s):0
Sky conditions: clear
Temperature: 46.0 F (7.8 C)
Dew Point: 18.0 F (-7.8 C)
Relative Humidity: 32%
Pressure (altimeter): 29.6 in. Hg (1002 hPa)
ob: KDIK 252156Z AUTO 26008KT 10SM CLR 08/M08 A2960 RMK AO2 SLP044 T00781078
cycle: 22

Station Type Date Time Source
KDIK TAF 2020/11/25 19:16 UTC NOAA

TAF
AMD KDIK 251914Z 2519/2618 24014KT P6SM BKN250
FM260700 30012KT P6SM BKN035
FM260800 29012KT P6SM BKN022
FM261200 28012KT P6SM SCT027
FM261400 27011G20KT P6SM SCT035

Example: see airport list